sensor_id;sensor_type;location;lat;lon;timestamp;temperature;humidity
16980;DHT22;42288;52.182;21.156;2023-02-03T00:01:46;3.20;99.90
16980;DHT22;42288;52.182;21.156;2023-02-03T00:04:11;3.10;99.90
16980;DHT22;42288;52.182;21.156;2023-02-03T00:06:37;2.90;99.90
16980;DHT22;42288;52.182;21.156;2023-02-03T00:09:03;2.90;99.90
16980;DHT22;42288;52.182;21.156;2023-02-03T00:11:29;3.10;99.90
16980;DHT22;42288;52.182;21.156;2023-02-03T00:13:55;3.00;99.90
16980;DHT22;42288;52.182;21.156;2023-02-03T00:16:21;3.00;99.90
16980;DHT22;42288;52.182;21.156;2023-02-03T00:18:46;2.90;99.90
16980;DHT22;42288;52.182;21.156;2023-02-03T00:21:12;3.00;99.90
16980;DHT22;42288;52.182;21.156;2023-02-03T00:23:39;3.00;99.90
16980;DHT22;42288;52.182;21.156;2023-02-03T00:26:07;2.90;99.90
16980;DHT22;42288;52.182;21.156;2023-02-03T00:28:32;2.90;99.90
16980;DHT22;42288;52.182;21.156;2023-02-03T00:30:58;2.70;99.90
16980;DHT22;42288;52.182;21.156;2023-02-03T00:33:23;2.50;99.90
16980;DHT22;42288;52.182;21.156;2023-02-03T00:35:49;2.40;99.90
16980;DHT22;42288;52.182;21.156;2023-02-03T00:38:14;2.30;99.90
16980;DHT22;42288;52.182;21.156;2023-02-03T00:40:40;2.30;99.90
16980;DHT22;42288;52.182;21.156;2023-02-03T00:43:06;2.40;99.90
16980;DHT22;42288;52.182;21.156;2023-02-03T00:45:31;2.40;99.90
16980;DHT22;42288;52.182;21.156;2023-02-03T00:47:57;2.40;99.90
16980;DHT22;42288;52.182;21.156;2023-02-03T00:50:22;2.30;99.90
16980;DHT22;42288;52.182;21.156;2023-02-03T00:52:48;2.20;99.90
16980;DHT22;42288;52.182;21.156;2023-02-03T00:55:13;2.20;99.90
16980;DHT22;42288;52.182;21.156;2023-02-03T00:57:39;2.10;99.90
16980;DHT22;42288;52.182;21.156;2023-02-03T01:00:05;2.10;99.90
16980;DHT22;42288;52.182;21.156;2023-02-03T01:02:31;2.30;99.90
16980;DHT22;42288;52.182;21.156;2023-02-03T01:04:56;2.20;99.90
16980;DHT22;42288;52.182;21.156;2023-02-03T01:07:22;2.30;99.90
16980;DHT22;42288;52.182;21.156;2023-02-03T01:09:47;2.40;99.90
16980;DHT22;42288;52.182;21.156;2023-02-03T01:12:13;2.50;99.90
16980;DHT22;42288;52.182;21.156;2023-02-03T01:14:38;2.70;99.90
16980;DHT22;42288;52.182;21.156;2023-02-03T01:17:04;2.50;99.90
16980;DHT22;42288;52.182;21.156;2023-02-03T01:19:30;2.60;99.90
16980;DHT22;42288;52.182;21.156;2023-02-03T01:21:55;2.60;99.90
16980;DHT22;42288;52.182;21.156;2023-02-03T01:24:21;2.60;99.90
16980;DHT22;42288;52.182;21.156;2023-02-03T01:26:46;2.50;99.90
16980;DHT22;42288;52.182;21.156;2023-02-03T01:29:12;2.30;99.90
16980;DHT22;42288;52.182;21.156;2023-02-03T01:31:40;2.20;99.90
16980;DHT22;42288;52.182;21.156;2023-02-03T01:34:10;2.30;99.90
16980;DHT22;42288;52.182;21.156;2023-02-03T01:36:36;2.40;99.90
16980;DHT22;42288;52.182;21.156;2023-02-03T01:39:03;2.40;99.90
16980;DHT22;42288;52.182;21.156;2023-02-03T01:41:32;2.50;99.90
16980;DHT22;42288;52.182;21.156;2023-02-03T01:43:59;2.70;99.90
16980;DHT22;42288;52.182;21.156;2023-02-03T01:46:36;2.70;99.90
16980;DHT22;42288;52.182;21.156;2023-02-03T01:49:13;2.60;99.90
16980;DHT22;42288;52.182;21.156;2023-02-03T01:51:43;2.60;99.90
16980;DHT22;42288;52.182;21.156;2023-02-03T01:54:12;2.60;99.90
16980;DHT22;42288;52.182;21.156;2023-02-03T01:56:47;2.70;99.90
16980;DHT22;42288;52.182;21.156;2023-02-03T01:59:16;2.70;99.90
16980;DHT22;42288;52.182;21.156;2023-02-03T02:01:43;2.80;99.90
16980;DHT22;42288;52.182;21.156;2023-02-03T02:04:09;2.90;99.90
16980;DHT22;42288;52.182;21.156;2023-02-03T02:06:35;2.80;99.90
16980;DHT22;42288;52.182;21.156;2023-02-03T02:09:01;2.80;99.90
16980;DHT22;42288;52.182;21.156;2023-02-03T02:11:28;2.70;99.90
16980;DHT22;42288;52.182;21.156;2023-02-03T02:13:58;2.70;99.90
16980;DHT22;42288;52.182;21.156;2023-02-03T02:16:41;2.70;99.90
16980;DHT22;42288;52.182;21.156;2023-02-03T02:30:25;3.00;99.90
16980;DHT22;42288;52.182;21.156;2023-02-03T02:35:56;2.60;99.90
16980;DHT22;42288;52.182;21.156;2023-02-03T02:41:05;3.00;99.90
16980;DHT22;42288;52.182;21.156;2023-02-03T02:48:43;2.70;99.90
16980;DHT22;42288;52.182;21.156;2023-02-03T02:51:13;2.90;99.90
16980;DHT22;42288;52.182;21.156;2023-02-03T02:53:44;2.90;99.90
16980;DHT22;42288;52.182;21.156;2023-02-03T02:56:12;2.90;99.90
16980;DHT22;42288;52.182;21.156;2023-02-03T02:58:40;2.90;99.90
16980;DHT22;42288;52.182;21.156;2023-02-03T03:01:08;2.70;99.90
16980;DHT22;42288;52.182;21.156;2023-02-03T03:03:34;2.80;99.90
16980;DHT22;42288;52.182;21.156;2023-02-03T03:06:06;2.70;99.90
16980;DHT22;42288;52.182;21.156;2023-02-03T03:08:38;2.60;99.90
16980;DHT22;42288;52.182;21.156;2023-02-03T03:11:04;2.60;99.90
16980;DHT22;42288;52.182;21.156;2023-02-03T03:13:34;2.70;99.90
16980;DHT22;42288;52.182;21.156;2023-02-03T03:16:04;2.90;99.90
16980;DHT22;42288;52.182;21.156;2023-02-03T03:18:39;2.80;99.90
16980;DHT22;42288;52.182;21.156;2023-02-03T03:21:09;2.90;99.90
16980;DHT22;42288;52.182;21.156;2023-02-03T03:23:39;2.60;99.90
16980;DHT22;42288;52.182;21.156;2023-02-03T03:26:33;2.50;99.90
16980;DHT22;42288;52.182;21.156;2023-02-03T03:29:10;2.60;99.90
16980;DHT22;42288;52.182;21.156;2023-02-03T03:31:38;2.50;99.90
16980;DHT22;42288;52.182;21.156;2023-02-03T03:34:04;2.70;99.90
16980;DHT22;42288;52.182;21.156;2023-02-03T03:36:41;2.80;99.90
16980;DHT22;42288;52.182;21.156;2023-02-03T03:41:58;3.00;99.90
16980;DHT22;42288;52.182;21.156;2023-02-03T03:44:28;2.70;99.90
16980;DHT22;42288;52.182;21.156;2023-02-03T03:49:34;2.50;99.90
16980;DHT22;42288;52.182;21.156;2023-02-03T03:52:05;2.40;99.90
16980;DHT22;42288;52.182;21.156;2023-02-03T03:54:32;2.50;99.90
16980;DHT22;42288;52.182;21.156;2023-02-03T03:57:06;2.40;99.90
16980;DHT22;42288;52.182;21.156;2023-02-03T03:59:37;2.30;99.90
16980;DHT22;42288;52.182;21.156;2023-02-03T04:02:04;2.30;99.90
16980;DHT22;42288;52.182;21.156;2023-02-03T04:04:31;2.30;99.90
16980;DHT22;42288;52.182;21.156;2023-02-03T04:06:57;2.30;99.90
16980;DHT22;42288;52.182;21.156;2023-02-03T04:09:23;2.20;99.90
16980;DHT22;42288;52.182;21.156;2023-02-03T04:11:48;2.10;99.90
16980;DHT22;42288;52.182;21.156;2023-02-03T04:14:33;2.00;99.90
16980;DHT22;42288;52.182;21.156;2023-02-03T04:17:00;1.90;99.90
16980;DHT22;42288;52.182;21.156;2023-02-03T04:19:26;1.90;99.90
16980;DHT22;42288;52.182;21.156;2023-02-03T04:21:52;2.00;99.90
16980;DHT22;42288;52.182;21.156;2023-02-03T04:24:17;1.90;99.90
16980;DHT22;42288;52.182;21.156;2023-02-03T04:26:43;1.80;99.90
16980;DHT22;42288;52.182;21.156;2023-02-03T04:29:08;1.50;99.90
16980;DHT22;42288;52.182;21.156;2023-02-03T04:31:34;1.40;99.90
16980;DHT22;42288;52.182;21.156;2023-02-03T04:34:00;1.30;99.90
16980;DHT22;42288;52.182;21.156;2023-02-03T04:36:26;1.30;99.90
16980;DHT22;42288;52.182;21.156;2023-02-03T04:38:51;1.50;99.90
16980;DHT22;42288;52.182;21.156;2023-02-03T04:41:17;1.50;99.90
16980;DHT22;42288;52.182;21.156;2023-02-03T04:43:43;1.30;99.90
16980;DHT22;42288;52.182;21.156;2023-02-03T04:46:08;1.30;99.90
16980;DHT22;42288;52.182;21.156;2023-02-03T04:48:34;1.50;99.90
16980;DHT22;42288;52.182;21.156;2023-02-03T04:51:01;1.60;99.90
16980;DHT22;42288;52.182;21.156;2023-02-03T04:53:28;1.50;99.90
16980;DHT22;42288;52.182;21.156;2023-02-03T04:55:53;1.60;99.90
16980;DHT22;42288;52.182;21.156;2023-02-03T04:58:19;1.60;99.90
16980;DHT22;42288;52.182;21.156;2023-02-03T05:00:44;1.40;99.90
16980;DHT22;42288;52.182;21.156;2023-02-03T05:03:10;1.50;99.90
16980;DHT22;42288;52.182;21.156;2023-02-03T05:05:35;1.60;99.90
16980;DHT22;42288;52.182;21.156;2023-02-03T05:08:01;1.70;99.90
16980;DHT22;42288;52.182;21.156;2023-02-03T05:10:26;1.70;99.90
16980;DHT22;42288;52.182;21.156;2023-02-03T05:12:52;1.60;99.90
16980;DHT22;42288;52.182;21.156;2023-02-03T05:15:17;1.70;99.90
16980;DHT22;42288;52.182;21.156;2023-02-03T05:17:43;1.70;99.90
16980;DHT22;42288;52.182;21.156;2023-02-03T05:20:09;1.60;99.90
16980;DHT22;42288;52.182;21.156;2023-02-03T05:22:35;1.70;99.90
16980;DHT22;42288;52.182;21.156;2023-02-03T05:25:01;1.50;99.90
16980;DHT22;42288;52.182;21.156;2023-02-03T05:27:27;1.70;99.90
16980;DHT22;42288;52.182;21.156;2023-02-03T05:29:53;1.60;99.90
16980;DHT22;42288;52.182;21.156;2023-02-03T05:32:18;1.50;99.90
16980;DHT22;42288;52.182;21.156;2023-02-03T05:34:44;1.40;99.90
16980;DHT22;42288;52.182;21.156;2023-02-03T05:37:10;1.40;99.90
16980;DHT22;42288;52.182;21.156;2023-02-03T05:39:35;1.60;99.90
16980;DHT22;42288;52.182;21.156;2023-02-03T05:42:01;1.40;99.90
16980;DHT22;42288;52.182;21.156;2023-02-03T05:44:28;1.40;99.90
16980;DHT22;42288;52.182;21.156;2023-02-03T05:46:55;1.40;99.90
16980;DHT22;42288;52.182;21.156;2023-02-03T05:49:21;1.30;99.90
16980;DHT22;42288;52.182;21.156;2023-02-03T05:51:54;1.40;99.90
16980;DHT22;42288;52.182;21.156;2023-02-03T05:54:20;1.20;99.90
16980;DHT22;42288;52.182;21.156;2023-02-03T05:56:45;1.10;99.90
16980;DHT22;42288;52.182;21.156;2023-02-03T05:59:11;1.00;99.90
16980;DHT22;42288;52.182;21.156;2023-02-03T06:01:37;1.00;99.90
16980;DHT22;42288;52.182;21.156;2023-02-03T06:04:03;1.00;99.90
16980;DHT22;42288;52.182;21.156;2023-02-03T06:06:29;0.90;99.90
16980;DHT22;42288;52.182;21.156;2023-02-03T06:09:02;0.90;99.90
16980;DHT22;42288;52.182;21.156;2023-02-03T06:11:28;1.00;99.90
16980;DHT22;42288;52.182;21.156;2023-02-03T06:13:55;0.90;99.90
16980;DHT22;42288;52.182;21.156;2023-02-03T06:16:23;1.00;99.90
16980;DHT22;42288;52.182;21.156;2023-02-03T06:18:52;0.90;99.90
16980;DHT22;42288;52.182;21.156;2023-02-03T06:21:19;0.80;99.90
16980;DHT22;42288;52.182;21.156;2023-02-03T06:23:45;0.90;99.90
16980;DHT22;42288;52.182;21.156;2023-02-03T06:26:10;0.80;99.90
16980;DHT22;42288;52.182;21.156;2023-02-03T06:28:36;1.00;99.90
16980;DHT22;42288;52.182;21.156;2023-02-03T06:31:05;0.90;99.90
16980;DHT22;42288;52.182;21.156;2023-02-03T06:33:31;0.90;99.90
16980;DHT22;42288;52.182;21.156;2023-02-03T06:35:56;1.00;99.90
16980;DHT22;42288;52.182;21.156;2023-02-03T06:38:22;1.20;99.90
16980;DHT22;42288;52.182;21.156;2023-02-03T06:40:48;1.30;99.90
16980;DHT22;42288;52.182;21.156;2023-02-03T06:43:14;1.40;99.90
16980;DHT22;42288;52.182;21.156;2023-02-03T06:45:40;1.40;99.90
16980;DHT22;42288;52.182;21.156;2023-02-03T06:48:05;1.50;99.90
16980;DHT22;42288;52.182;21.156;2023-02-03T06:50:32;1.20;99.90
16980;DHT22;42288;52.182;21.156;2023-02-03T06:52:57;1.40;99.90
16980;DHT22;42288;52.182;21.156;2023-02-03T06:55:23;1.40;99.90
16980;DHT22;42288;52.182;21.156;2023-02-03T06:57:48;1.40;99.90
16980;DHT22;42288;52.182;21.156;2023-02-03T07:00:15;1.40;99.90
16980;DHT22;42288;52.182;21.156;2023-02-03T07:02:41;1.50;99.90
16980;DHT22;42288;52.182;21.156;2023-02-03T07:05:07;1.60;99.90
16980;DHT22;42288;52.182;21.156;2023-02-03T07:07:34;1.50;99.90
16980;DHT22;42288;52.182;21.156;2023-02-03T07:10:01;1.70;99.90
16980;DHT22;42288;52.182;21.156;2023-02-03T07:12:26;1.80;99.90
16980;DHT22;42288;52.182;21.156;2023-02-03T07:14:52;1.90;99.90
16980;DHT22;42288;52.182;21.156;2023-02-03T07:17:19;2.00;99.90
16980;DHT22;42288;52.182;21.156;2023-02-03T07:19:44;2.10;99.90
16980;DHT22;42288;52.182;21.156;2023-02-03T07:22:10;2.20;99.90
16980;DHT22;42288;52.182;21.156;2023-02-03T07:24:36;2.30;99.90
16980;DHT22;42288;52.182;21.156;2023-02-03T07:27:02;2.40;99.90
16980;DHT22;42288;52.182;21.156;2023-02-03T07:29:27;2.40;99.90
16980;DHT22;42288;52.182;21.156;2023-02-03T07:31:53;2.30;99.90
16980;DHT22;42288;52.182;21.156;2023-02-03T07:34:19;2.60;99.90
16980;DHT22;42288;52.182;21.156;2023-02-03T07:36:44;2.40;99.90
16980;DHT22;42288;52.182;21.156;2023-02-03T07:39:10;2.60;99.90
16980;DHT22;42288;52.182;21.156;2023-02-03T07:41:35;2.60;99.90
16980;DHT22;42288;52.182;21.156;2023-02-03T07:44:01;2.60;99.90
16980;DHT22;42288;52.182;21.156;2023-02-03T07:46:27;2.80;99.90
16980;DHT22;42288;52.182;21.156;2023-02-03T07:48:53;2.80;99.90
16980;DHT22;42288;52.182;21.156;2023-02-03T07:51:18;2.90;99.90
16980;DHT22;42288;52.182;21.156;2023-02-03T07:53:44;2.90;99.90
16980;DHT22;42288;52.182;21.156;2023-02-03T07:56:10;2.60;99.90
16980;DHT22;42288;52.182;21.156;2023-02-03T07:58:36;2.70;99.90
16980;DHT22;42288;52.182;21.156;2023-02-03T08:01:09;2.90;99.90
16980;DHT22;42288;52.182;21.156;2023-02-03T08:03:35;3.00;99.90
16980;DHT22;42288;52.182;21.156;2023-02-03T08:06:01;3.00;99.90
16980;DHT22;42288;52.182;21.156;2023-02-03T08:08:26;3.20;99.90
16980;DHT22;42288;52.182;21.156;2023-02-03T08:10:54;3.10;99.90
16980;DHT22;42288;52.182;21.156;2023-02-03T08:13:21;3.20;99.90
16980;DHT22;42288;52.182;21.156;2023-02-03T08:15:46;2.80;99.90
16980;DHT22;42288;52.182;21.156;2023-02-03T08:18:12;3.00;99.90
16980;DHT22;42288;52.182;21.156;2023-02-03T08:20:38;3.10;99.90
16980;DHT22;42288;52.182;21.156;2023-02-03T08:23:04;3.10;99.90
16980;DHT22;42288;52.182;21.156;2023-02-03T08:25:32;3.30;99.90
16980;DHT22;42288;52.182;21.156;2023-02-03T08:27:58;3.60;99.90
16980;DHT22;42288;52.182;21.156;2023-02-03T08:30:23;3.80;99.90
16980;DHT22;42288;52.182;21.156;2023-02-03T08:32:49;3.80;99.90
16980;DHT22;42288;52.182;21.156;2023-02-03T08:35:15;3.90;99.90
16980;DHT22;42288;52.182;21.156;2023-02-03T08:37:41;3.90;99.90
16980;DHT22;42288;52.182;21.156;2023-02-03T08:40:08;3.80;99.90
16980;DHT22;42288;52.182;21.156;2023-02-03T08:42:33;3.70;99.90
16980;DHT22;42288;52.182;21.156;2023-02-03T08:44:59;3.90;99.90
16980;DHT22;42288;52.182;21.156;2023-02-03T08:47:25;4.30;99.90
16980;DHT22;42288;52.182;21.156;2023-02-03T08:49:51;4.20;99.90
16980;DHT22;42288;52.182;21.156;2023-02-03T08:52:16;4.50;99.90
16980;DHT22;42288;52.182;21.156;2023-02-03T08:54:42;4.20;99.90
16980;DHT22;42288;52.182;21.156;2023-02-03T08:57:08;4.10;99.90
16980;DHT22;42288;52.182;21.156;2023-02-03T08:59:35;4.20;99.90
16980;DHT22;42288;52.182;21.156;2023-02-03T09:02:03;4.10;99.90
16980;DHT22;42288;52.182;21.156;2023-02-03T09:04:29;4.20;99.90
16980;DHT22;42288;52.182;21.156;2023-02-03T09:06:54;3.90;99.90
16980;DHT22;42288;52.182;21.156;2023-02-03T09:09:21;3.90;99.90
16980;DHT22;42288;52.182;21.156;2023-02-03T09:11:47;4.10;99.90
16980;DHT22;42288;52.182;21.156;2023-02-03T09:14:13;4.10;99.90
16980;DHT22;42288;52.182;21.156;2023-02-03T09:16:39;4.20;99.90
16980;DHT22;42288;52.182;21.156;2023-02-03T09:19:05;4.40;99.90
16980;DHT22;42288;52.182;21.156;2023-02-03T09:21:30;4.30;99.90
16980;DHT22;42288;52.182;21.156;2023-02-03T09:24:02;4.60;99.90
16980;DHT22;42288;52.182;21.156;2023-02-03T09:26:28;4.70;99.90
16980;DHT22;42288;52.182;21.156;2023-02-03T09:28:54;4.70;99.90
16980;DHT22;42288;52.182;21.156;2023-02-03T09:31:20;4.70;99.90
16980;DHT22;42288;52.182;21.156;2023-02-03T09:33:45;4.80;99.50
16980;DHT22;42288;52.182;21.156;2023-02-03T09:36:12;4.90;98.60
16980;DHT22;42288;52.182;21.156;2023-02-03T09:38:38;5.20;99.10
16980;DHT22;42288;52.182;21.156;2023-02-03T09:43:46;4.90;98.50
16980;DHT22;42288;52.182;21.156;2023-02-03T09:46:17;5.00;98.10
16980;DHT22;42288;52.182;21.156;2023-02-03T09:48:48;5.10;98.30
16980;DHT22;42288;52.182;21.156;2023-02-03T09:51:29;5.40;98.50
16980;DHT22;42288;52.182;21.156;2023-02-03T09:54:10;5.30;98.20
16980;DHT22;42288;52.182;21.156;2023-02-03T09:56:38;5.60;97.40
16980;DHT22;42288;52.182;21.156;2023-02-03T09:59:07;5.70;96.50
16980;DHT22;42288;52.182;21.156;2023-02-03T10:04:40;5.50;95.10
16980;DHT22;42288;52.182;21.156;2023-02-03T10:17:55;4.80;94.80
16980;DHT22;42288;52.182;21.156;2023-02-03T10:20:33;5.30;94.30
16980;DHT22;42288;52.182;21.156;2023-02-03T10:23:05;5.80;94.50
16980;DHT22;42288;52.182;21.156;2023-02-03T10:25:44;6.30;92.70
16980;DHT22;42288;52.182;21.156;2023-02-03T10:28:17;6.60;91.40
16980;DHT22;42288;52.182;21.156;2023-02-03T10:30:47;6.70;90.50
16980;DHT22;42288;52.182;21.156;2023-02-03T10:33:16;6.30;90.70
16980;DHT22;42288;52.182;21.156;2023-02-03T10:35:49;6.10;90.80
16980;DHT22;42288;52.182;21.156;2023-02-03T10:40:59;6.10;90.10
16980;DHT22;42288;52.182;21.156;2023-02-03T10:43:26;5.90;90.90
16980;DHT22;42288;52.182;21.156;2023-02-03T10:46:15;5.10;90.90
16980;DHT22;42288;52.182;21.156;2023-02-03T10:48:41;5.20;91.60
16980;DHT22;42288;52.182;21.156;2023-02-03T10:51:29;5.30;92.20
16980;DHT22;42288;52.182;21.156;2023-02-03T10:53:59;5.60;91.20
16980;DHT22;42288;52.182;21.156;2023-02-03T10:56:34;6.30;90.70
16980;DHT22;42288;52.182;21.156;2023-02-03T10:59:00;5.60;88.90
16980;DHT22;42288;52.182;21.156;2023-02-03T11:01:38;6.00;90.50
16980;DHT22;42288;52.182;21.156;2023-02-03T11:04:06;6.00;90.80
16980;DHT22;42288;52.182;21.156;2023-02-03T11:06:34;6.50;88.70
16980;DHT22;42288;52.182;21.156;2023-02-03T11:09:01;5.60;88.50
16980;DHT22;42288;52.182;21.156;2023-02-03T11:11:29;5.30;89.90
16980;DHT22;42288;52.182;21.156;2023-02-03T11:16:37;5.70;89.80
16980;DHT22;42288;52.182;21.156;2023-02-03T11:21:43;5.50;90.20
16980;DHT22;42288;52.182;21.156;2023-02-03T11:24:13;5.90;90.70
16980;DHT22;42288;52.182;21.156;2023-02-03T11:26:48;5.90;90.50
16980;DHT22;42288;52.182;21.156;2023-02-03T11:29:27;5.20;90.40
16980;DHT22;42288;52.182;21.156;2023-02-03T11:31:55;5.20;91.10
16980;DHT22;42288;52.182;21.156;2023-02-03T11:34:28;4.90;90.60
16980;DHT22;42288;52.182;21.156;2023-02-03T11:36:54;5.00;91.40
16980;DHT22;42288;52.182;21.156;2023-02-03T11:39:29;4.60;91.10
16980;DHT22;42288;52.182;21.156;2023-02-03T11:42:02;4.90;91.40
16980;DHT22;42288;52.182;21.156;2023-02-03T11:44:33;4.40;92.20
16980;DHT22;42288;52.182;21.156;2023-02-03T11:47:11;4.30;93.40
16980;DHT22;42288;52.182;21.156;2023-02-03T11:55:20;4.10;92.20
16980;DHT22;42288;52.182;21.156;2023-02-03T12:08:43;3.90;94.90
16980;DHT22;42288;52.182;21.156;2023-02-03T12:14:28;4.20;93.00
16980;DHT22;42288;52.182;21.156;2023-02-03T12:17:24;4.00;93.30
16980;DHT22;42288;52.182;21.156;2023-02-03T12:31:01;4.10;93.70
16980;DHT22;42288;52.182;21.156;2023-02-03T12:33:42;4.10;93.60
16980;DHT22;42288;52.182;21.156;2023-02-03T12:36:22;3.60;93.00
16980;DHT22;42288;52.182;21.156;2023-02-03T12:38:55;3.80;93.60
16980;DHT22;42288;52.182;21.156;2023-02-03T12:41:37;3.70;93.60
16980;DHT22;42288;52.182;21.156;2023-02-03T12:44:23;3.70;93.70
16980;DHT22;42288;52.182;21.156;2023-02-03T12:49:49;3.60;94.10
16980;DHT22;42288;52.182;21.156;2023-02-03T12:57:57;3.50;93.80
16980;DHT22;42288;52.182;21.156;2023-02-03T13:03:06;3.50;94.70
16980;DHT22;42288;52.182;21.156;2023-02-03T13:05:42;3.60;94.60
16980;DHT22;42288;52.182;21.156;2023-02-03T13:08:27;3.60;94.40
16980;DHT22;42288;52.182;21.156;2023-02-03T13:13:46;3.50;94.20
16980;DHT22;42288;52.182;21.156;2023-02-03T13:16:14;3.70;95.10
16980;DHT22;42288;52.182;21.156;2023-02-03T13:18:45;3.60;94.30
16980;DHT22;42288;52.182;21.156;2023-02-03T13:21:12;3.60;94.40
16980;DHT22;42288;52.182;21.156;2023-02-03T13:23:41;3.70;94.20
16980;DHT22;42288;52.182;21.156;2023-02-03T13:26:31;3.50;94.00
16980;DHT22;42288;52.182;21.156;2023-02-03T13:29:48;3.30;94.30
16980;DHT22;42288;52.182;21.156;2023-02-03T13:38:14;3.80;96.30
16980;DHT22;42288;52.182;21.156;2023-02-03T13:40:47;3.10;95.30
16980;DHT22;42288;52.182;21.156;2023-02-03T13:43:28;3.40;97.40
16980;DHT22;42288;52.182;21.156;2023-02-03T13:45:56;3.50;96.60
16980;DHT22;42288;52.182;21.156;2023-02-03T13:48:25;3.40;96.50
16980;DHT22;42288;52.182;21.156;2023-02-03T13:53:40;3.20;97.50
16980;DHT22;42288;52.182;21.156;2023-02-03T13:56:24;3.20;98.60
16980;DHT22;42288;52.182;21.156;2023-02-03T14:01:40;3.00;99.90
16980;DHT22;42288;52.182;21.156;2023-02-03T14:04:08;2.90;99.90
16980;DHT22;42288;52.182;21.156;2023-02-03T14:06:56;2.80;99.90
16980;DHT22;42288;52.182;21.156;2023-02-03T14:20:43;2.00;99.90
16980;DHT22;42288;52.182;21.156;2023-02-03T14:23:27;2.00;99.90
16980;DHT22;42288;52.182;21.156;2023-02-03T14:25:59;2.10;99.90
16980;DHT22;42288;52.182;21.156;2023-02-03T14:28:35;2.00;99.90
16980;DHT22;42288;52.182;21.156;2023-02-03T14:31:09;1.90;99.90
16980;DHT22;42288;52.182;21.156;2023-02-03T14:38:54;2.40;99.90
16980;DHT22;42288;52.182;21.156;2023-02-03T14:50:25;2.10;99.90
16980;DHT22;42288;52.182;21.156;2023-02-03T14:58:42;2.40;99.90
16980;DHT22;42288;52.182;21.156;2023-02-03T15:06:45;2.30;99.90
16980;DHT22;42288;52.182;21.156;2023-02-03T15:09:38;2.50;99.90
16980;DHT22;42288;52.182;21.156;2023-02-03T15:12:34;2.40;99.90
16980;DHT22;42288;52.182;21.156;2023-02-03T15:15:29;2.60;99.90
16980;DHT22;42288;52.182;21.156;2023-02-03T15:17:57;2.70;99.90
16980;DHT22;42288;52.182;21.156;2023-02-03T15:20:34;2.60;99.90
16980;DHT22;42288;52.182;21.156;2023-02-03T15:23:20;2.50;99.90
16980;DHT22;42288;52.182;21.156;2023-02-03T15:25:59;2.30;99.90
16980;DHT22;42288;52.182;21.156;2023-02-03T15:28:26;2.50;99.90
16980;DHT22;42288;52.182;21.156;2023-02-03T15:33:30;2.70;99.90
16980;DHT22;42288;52.182;21.156;2023-02-03T15:36:00;2.70;99.90
16980;DHT22;42288;52.182;21.156;2023-02-03T15:38:30;2.70;99.90
16980;DHT22;42288;52.182;21.156;2023-02-03T15:40:58;2.70;99.90
16980;DHT22;42288;52.182;21.156;2023-02-03T15:43:44;2.80;99.90
16980;DHT22;42288;52.182;21.156;2023-02-03T15:49:13;2.70;99.90
16980;DHT22;42288;52.182;21.156;2023-02-03T15:54:18;2.80;99.90
16980;DHT22;42288;52.182;21.156;2023-02-03T15:56:48;2.80;99.90
16980;DHT22;42288;52.182;21.156;2023-02-03T15:59:28;2.70;99.90
16980;DHT22;42288;52.182;21.156;2023-02-03T16:01:54;2.80;99.90
16980;DHT22;42288;52.182;21.156;2023-02-03T16:04:21;2.60;99.90
16980;DHT22;42288;52.182;21.156;2023-02-03T16:06:49;2.80;99.90
16980;DHT22;42288;52.182;21.156;2023-02-03T16:09:33;2.70;99.90
16980;DHT22;42288;52.182;21.156;2023-02-03T16:12:25;2.70;99.90
16980;DHT22;42288;52.182;21.156;2023-02-03T16:14:53;2.70;99.90
16980;DHT22;42288;52.182;21.156;2023-02-03T16:17:32;2.70;99.90
16980;DHT22;42288;52.182;21.156;2023-02-03T16:22:44;2.80;99.90
16980;DHT22;42288;52.182;21.156;2023-02-03T16:25:19;2.90;99.90
16980;DHT22;42288;52.182;21.156;2023-02-03T16:30:38;3.00;99.90
16980;DHT22;42288;52.182;21.156;2023-02-03T16:33:33;2.90;99.90
16980;DHT22;42288;52.182;21.156;2023-02-03T16:36:17;3.10;99.90
16980;DHT22;42288;52.182;21.156;2023-02-03T16:39:05;2.90;99.90
16980;DHT22;42288;52.182;21.156;2023-02-03T16:41:49;2.90;99.90
16980;DHT22;42288;52.182;21.156;2023-02-03T16:44:34;2.80;99.90
16980;DHT22;42288;52.182;21.156;2023-02-03T16:47:26;2.60;99.90
16980;DHT22;42288;52.182;21.156;2023-02-03T16:50:16;2.70;99.90
16980;DHT22;42288;52.182;21.156;2023-02-03T16:53:00;2.80;99.90
16980;DHT22;42288;52.182;21.156;2023-02-03T16:55:26;2.70;99.90
16980;DHT22;42288;52.182;21.156;2023-02-03T16:57:51;2.70;99.90
16980;DHT22;42288;52.182;21.156;2023-02-03T17:00:18;2.60;99.90
16980;DHT22;42288;52.182;21.156;2023-02-03T17:02:47;2.70;99.90
16980;DHT22;42288;52.182;21.156;2023-02-03T17:05:13;2.80;99.90
16980;DHT22;42288;52.182;21.156;2023-02-03T17:07:38;2.80;99.90
16980;DHT22;42288;52.182;21.156;2023-02-03T17:10:04;2.70;99.90
16980;DHT22;42288;52.182;21.156;2023-02-03T17:12:30;2.80;99.90
16980;DHT22;42288;52.182;21.156;2023-02-03T17:14:57;2.80;99.90
16980;DHT22;42288;52.182;21.156;2023-02-03T17:17:23;2.90;99.90
16980;DHT22;42288;52.182;21.156;2023-02-03T17:19:49;2.80;99.90
16980;DHT22;42288;52.182;21.156;2023-02-03T17:22:15;2.80;99.90
16980;DHT22;42288;52.182;21.156;2023-02-03T17:24:40;2.90;99.90
16980;DHT22;42288;52.182;21.156;2023-02-03T17:27:06;2.90;99.90
16980;DHT22;42288;52.182;21.156;2023-02-03T17:29:31;2.90;99.90
16980;DHT22;42288;52.182;21.156;2023-02-03T17:31:57;3.00;99.90
16980;DHT22;42288;52.182;21.156;2023-02-03T17:34:22;3.10;99.90
16980;DHT22;42288;52.182;21.156;2023-02-03T17:36:48;2.90;99.90
16980;DHT22;42288;52.182;21.156;2023-02-03T17:39:13;2.80;99.90
16980;DHT22;42288;52.182;21.156;2023-02-03T17:41:39;2.80;99.90
16980;DHT22;42288;52.182;21.156;2023-02-03T17:44:05;2.80;99.90
16980;DHT22;42288;52.182;21.156;2023-02-03T17:46:30;2.70;99.90
16980;DHT22;42288;52.182;21.156;2023-02-03T17:48:56;2.70;99.90
16980;DHT22;42288;52.182;21.156;2023-02-03T17:51:24;2.70;99.90
16980;DHT22;42288;52.182;21.156;2023-02-03T17:53:56;3.00;99.90
16980;DHT22;42288;52.182;21.156;2023-02-03T17:56:23;3.00;99.90
16980;DHT22;42288;52.182;21.156;2023-02-03T17:59:00;3.00;99.90
16980;DHT22;42288;52.182;21.156;2023-02-03T18:01:28;3.10;99.90
16980;DHT22;42288;52.182;21.156;2023-02-03T18:03:59;2.90;99.90
16980;DHT22;42288;52.182;21.156;2023-02-03T18:06:27;3.10;99.90
16980;DHT22;42288;52.182;21.156;2023-02-03T18:08:53;3.10;99.90
16980;DHT22;42288;52.182;21.156;2023-02-03T18:11:25;3.10;99.90
16980;DHT22;42288;52.182;21.156;2023-02-03T18:13:51;3.20;99.90
16980;DHT22;42288;52.182;21.156;2023-02-03T18:16:19;3.40;99.90
16980;DHT22;42288;52.182;21.156;2023-02-03T18:18:47;3.40;99.90
16980;DHT22;42288;52.182;21.156;2023-02-03T18:21:14;3.10;99.90
16980;DHT22;42288;52.182;21.156;2023-02-03T18:23:40;3.20;99.90